sensor_id;sensor_type;location;lat;lon;timestamp;P1;durP1;ratioP1;P2;durP2;ratioP2
33993;SDS011;20673;48.980;8.138;2024-02-21T00:01:08;10.33;;;6.63;;
33993;SDS011;20673;48.980;8.138;2024-02-21T00:03:42;16.00;;;6.17;;
33993;SDS011;20673;48.980;8.138;2024-02-21T00:06:08;15.87;;;5.93;;
33993;SDS011;20673;48.980;8.138;2024-02-21T00:08:34;16.30;;;6.47;;
33993;SDS011;20673;48.980;8.138;2024-02-21T00:11:00;14.98;;;6.62;;
33993;SDS011;20673;48.980;8.138;2024-02-21T00:13:26;14.70;;;5.87;;
33993;SDS011;20673;48.980;8.138;2024-02-21T00:15:52;13.43;;;5.40;;
33993;SDS011;20673;48.980;8.138;2024-02-21T00:18:18;11.63;;;5.58;;
33993;SDS011;20673;48.980;8.138;2024-02-21T00:20:44;12.63;;;6.13;;
33993;SDS011;20673;48.980;8.138;2024-02-21T00:23:11;13.70;;;6.42;;
33993;SDS011;20673;48.980;8.138;2024-02-21T00:25:37;17.42;;;6.25;;
33993;SDS011;20673;48.980;8.138;2024-02-21T00:28:03;15.35;;;6.05;;
33993;SDS011;20673;48.980;8.138;2024-02-21T00:30:31;17.35;;;6.42;;
33993;SDS011;20673;48.980;8.138;2024-02-21T00:32:57;16.63;;;5.47;;
33993;SDS011;20673;48.980;8.138;2024-02-21T00:35:24;13.97;;;6.97;;
33993;SDS011;20673;48.980;8.138;2024-02-21T00:37:50;12.13;;;5.87;;
33993;SDS011;20673;48.980;8.138;2024-02-21T00:40:17;14.80;;;6.20;;
33993;SDS011;20673;48.980;8.138;2024-02-21T00:42:45;17.50;;;5.93;;
33993;SDS011;20673;48.980;8.138;2024-02-21T00:45:12;18.23;;;5.77;;
33993;SDS011;20673;48.980;8.138;2024-02-21T00:47:39;16.97;;;6.80;;
33993;SDS011;20673;48.980;8.138;2024-02-21T00:50:05;13.73;;;6.53;;
33993;SDS011;20673;48.980;8.138;2024-02-21T00:52:33;18.60;;;5.93;;
33993;SDS011;20673;48.980;8.138;2024-02-21T00:54:59;15.90;;;5.80;;
33993;SDS011;20673;48.980;8.138;2024-02-21T00:57:25;18.23;;;6.23;;
33993;SDS011;20673;48.980;8.138;2024-02-21T00:59:52;13.27;;;5.57;;
33993;SDS011;20673;48.980;8.138;2024-02-21T01:02:18;17.95;;;5.58;;
33993;SDS011;20673;48.980;8.138;2024-02-21T01:04:44;13.97;;;5.87;;
33993;SDS011;20673;48.980;8.138;2024-02-21T01:07:10;12.53;;;5.23;;
33993;SDS011;20673;48.980;8.138;2024-02-21T01:09:36;15.40;;;5.37;;
33993;SDS011;20673;48.980;8.138;2024-02-21T01:12:03;11.47;;;5.63;;
33993;SDS011;20673;48.980;8.138;2024-02-21T01:14:29;14.17;;;5.70;;
33993;SDS011;20673;48.980;8.138;2024-02-21T01:16:55;14.10;;;5.13;;
33993;SDS011;20673;48.980;8.138;2024-02-21T01:19:21;13.97;;;4.50;;
33993;SDS011;20673;48.980;8.138;2024-02-21T01:21:47;16.20;;;4.90;;
33993;SDS011;20673;48.980;8.138;2024-02-21T01:24:14;15.33;;;4.80;;
33993;SDS011;20673;48.980;8.138;2024-02-21T01:26:40;10.17;;;4.60;;
33993;SDS011;20673;48.980;8.138;2024-02-21T01:29:06;9.37;;;4.63;;
33993;SDS011;20673;48.980;8.138;2024-02-21T01:31:32;14.90;;;4.70;;
33993;SDS011;20673;48.980;8.138;2024-02-21T01:33:58;6.90;;;4.00;;
33993;SDS011;20673;48.980;8.138;2024-02-21T01:36:24;13.05;;;4.83;;
33993;SDS011;20673;48.980;8.138;2024-02-21T01:38:50;10.27;;;4.57;;
33993;SDS011;20673;48.980;8.138;2024-02-21T01:41:16;13.13;;;5.43;;
33993;SDS011;20673;48.980;8.138;2024-02-21T01:43:43;11.00;;;5.27;;
33993;SDS011;20673;48.980;8.138;2024-02-21T01:46:09;14.23;;;4.93;;
33993;SDS011;20673;48.980;8.138;2024-02-21T01:48:35;16.17;;;5.63;;
33993;SDS011;20673;48.980;8.138;2024-02-21T01:51:01;10.80;;;5.43;;
33993;SDS011;20673;48.980;8.138;2024-02-21T01:53:30;15.93;;;4.75;;
33993;SDS011;20673;48.980;8.138;2024-02-21T01:56:04;9.03;;;4.07;;
33993;SDS011;20673;48.980;8.138;2024-02-21T01:58:32;12.00;;;4.00;;
33993;SDS011;20673;48.980;8.138;2024-02-21T02:01:02;9.43;;;4.22;;
33993;SDS011;20673;48.980;8.138;2024-02-21T02:03:29;12.17;;;4.70;;
33993;SDS011;20673;48.980;8.138;2024-02-21T02:05:56;9.95;;;3.98;;
33993;SDS011;20673;48.980;8.138;2024-02-21T02:08:22;11.97;;;4.43;;
33993;SDS011;20673;48.980;8.138;2024-02-21T02:10:49;11.97;;;4.45;;
33993;SDS011;20673;48.980;8.138;2024-02-21T02:13:15;12.58;;;4.83;;
33993;SDS011;20673;48.980;8.138;2024-02-21T02:15:42;14.70;;;5.10;;
33993;SDS011;20673;48.980;8.138;2024-02-21T02:18:14;10.67;;;5.53;;
33993;SDS011;20673;48.980;8.138;2024-02-21T02:20:42;12.30;;;5.30;;
33993;SDS011;20673;48.980;8.138;2024-02-21T02:23:11;11.93;;;4.70;;
33993;SDS011;20673;48.980;8.138;2024-02-21T02:25:52;7.58;;;3.83;;
33993;SDS011;20673;48.980;8.138;2024-02-21T02:28:19;13.10;;;5.27;;
33993;SDS011;20673;48.980;8.138;2024-02-21T02:30:46;14.07;;;5.10;;
33993;SDS011;20673;48.980;8.138;2024-02-21T02:33:13;9.63;;;4.63;;
33993;SDS011;20673;48.980;8.138;2024-02-21T02:35:40;14.43;;;5.17;;
33993;SDS011;20673;48.980;8.138;2024-02-21T02:38:06;10.57;;;5.63;;
33993;SDS011;20673;48.980;8.138;2024-02-21T02:40:33;15.37;;;5.33;;
33993;SDS011;20673;48.980;8.138;2024-02-21T02:43:00;15.13;;;5.40;;
33993;SDS011;20673;48.980;8.138;2024-02-21T02:45:26;8.67;;;5.13;;
33993;SDS011;20673;48.980;8.138;2024-02-21T02:47:53;12.17;;;5.40;;
33993;SDS011;20673;48.980;8.138;2024-02-21T02:50:20;10.77;;;4.60;;
33993;SDS011;20673;48.980;8.138;2024-02-21T02:52:46;14.23;;;6.27;;
33993;SDS011;20673;48.980;8.138;2024-02-21T02:55:12;17.33;;;6.60;;
33993;SDS011;20673;48.980;8.138;2024-02-21T02:57:38;12.47;;;6.10;;
33993;SDS011;20673;48.980;8.138;2024-02-21T03:00:07;12.30;;;5.43;;
33993;SDS011;20673;48.980;8.138;2024-02-21T03:02:37;14.13;;;5.43;;
33993;SDS011;20673;48.980;8.138;2024-02-21T03:05:26;11.77;;;5.53;;
33993;SDS011;20673;48.980;8.138;2024-02-21T03:07:44;11.27;;;4.73;;
33993;SDS011;20673;48.980;8.138;2024-02-21T03:10:11;14.67;;;6.37;;
33993;SDS011;20673;48.980;8.138;2024-02-21T03:12:38;14.63;;;5.53;;
33993;SDS011;20673;48.980;8.138;2024-02-21T03:15:05;12.97;;;5.67;;
33993;SDS011;20673;48.980;8.138;2024-02-21T03:17:32;11.63;;;5.37;;
33993;SDS011;20673;48.980;8.138;2024-02-21T03:20:05;12.17;;;5.13;;
33993;SDS011;20673;48.980;8.138;2024-02-21T03:22:35;10.13;;;6.77;;
33993;SDS011;20673;48.980;8.138;2024-02-21T03:25:02;12.77;;;9.03;;
33993;SDS011;20673;48.980;8.138;2024-02-21T03:27:29;18.90;;;8.80;;
33993;SDS011;20673;48.980;8.138;2024-02-21T03:29:56;10.70;;;6.57;;
33993;SDS011;20673;48.980;8.138;2024-02-21T03:32:22;10.40;;;6.07;;
33993;SDS011;20673;48.980;8.138;2024-02-21T03:34:48;14.40;;;5.67;;
33993;SDS011;20673;48.980;8.138;2024-02-21T03:37:14;12.07;;;5.63;;
33993;SDS011;20673;48.980;8.138;2024-02-21T03:39:41;14.70;;;6.37;;
33993;SDS011;20673;48.980;8.138;2024-02-21T03:42:07;13.53;;;6.53;;
33993;SDS011;20673;48.980;8.138;2024-02-21T03:44:33;22.17;;;6.20;;
33993;SDS011;20673;48.980;8.138;2024-02-21T03:46:59;13.63;;;6.00;;
33993;SDS011;20673;48.980;8.138;2024-02-21T03:49:26;13.97;;;5.60;;
33993;SDS011;20673;48.980;8.138;2024-02-21T03:51:52;10.50;;;5.63;;
33993;SDS011;20673;48.980;8.138;2024-02-21T03:54:18;15.37;;;5.43;;
33993;SDS011;20673;48.980;8.138;2024-02-21T03:56:45;11.53;;;5.27;;
33993;SDS011;20673;48.980;8.138;2024-02-21T03:59:14;14.87;;;5.93;;
33993;SDS011;20673;48.980;8.138;2024-02-21T04:01:40;10.87;;;5.00;;
33993;SDS011;20673;48.980;8.138;2024-02-21T04:04:06;16.30;;;6.13;;
33993;SDS011;20673;48.980;8.138;2024-02-21T04:06:33;12.30;;;5.77;;
33993;SDS011;20673;48.980;8.138;2024-02-21T04:08:59;14.03;;;5.03;;
33993;SDS011;20673;48.980;8.138;2024-02-21T04:11:25;10.87;;;4.87;;
33993;SDS011;20673;48.980;8.138;2024-02-21T04:13:51;15.50;;;5.50;;
33993;SDS011;20673;48.980;8.138;2024-02-21T04:16:17;12.23;;;6.30;;
33993;SDS011;20673;48.980;8.138;2024-02-21T04:18:43;8.97;;;4.97;;
33993;SDS011;20673;48.980;8.138;2024-02-21T04:21:10;13.93;;;5.50;;
33993;SDS011;20673;48.980;8.138;2024-02-21T04:23:40;13.80;;;6.00;;
33993;SDS011;20673;48.980;8.138;2024-02-21T04:26:06;9.67;;;5.03;;
33993;SDS011;20673;48.980;8.138;2024-02-21T04:28:33;13.07;;;5.40;;
33993;SDS011;20673;48.980;8.138;2024-02-21T04:30:59;13.10;;;5.50;;
33993;SDS011;20673;48.980;8.138;2024-02-21T04:33:25;12.03;;;5.17;;
33993;SDS011;20673;48.980;8.138;2024-02-21T04:35:51;10.17;;;5.93;;
33993;SDS011;20673;48.980;8.138;2024-02-21T04:38:19;14.43;;;6.97;;
33993;SDS011;20673;48.980;8.138;2024-02-21T04:40:45;12.90;;;5.90;;
33993;SDS011;20673;48.980;8.138;2024-02-21T04:43:11;16.07;;;7.13;;
33993;SDS011;20673;48.980;8.138;2024-02-21T04:45:38;14.30;;;5.97;;
33993;SDS011;20673;48.980;8.138;2024-02-21T04:48:04;14.13;;;5.37;;
33993;SDS011;20673;48.980;8.138;2024-02-21T04:50:30;10.27;;;5.20;;
33993;SDS011;20673;48.980;8.138;2024-02-21T04:52:57;12.53;;;5.37;;
33993;SDS011;20673;48.980;8.138;2024-02-21T04:55:23;15.10;;;6.30;;
33993;SDS011;20673;48.980;8.138;2024-02-21T04:57:49;14.77;;;6.40;;
33993;SDS011;20673;48.980;8.138;2024-02-21T05:00:15;15.20;;;7.83;;
33993;SDS011;20673;48.980;8.138;2024-02-21T05:02:42;14.67;;;6.73;;
33993;SDS011;20673;48.980;8.138;2024-02-21T05:05:08;14.40;;;7.40;;
33993;SDS011;20673;48.980;8.138;2024-02-21T05:07:34;12.80;;;7.50;;
33993;SDS011;20673;48.980;8.138;2024-02-21T05:10:00;15.83;;;7.67;;
33993;SDS011;20673;48.980;8.138;2024-02-21T05:12:27;16.17;;;7.37;;
33993;SDS011;20673;48.980;8.138;2024-02-21T05:14:53;12.20;;;6.30;;
33993;SDS011;20673;48.980;8.138;2024-02-21T05:17:19;13.80;;;5.70;;
33993;SDS011;20673;48.980;8.138;2024-02-21T05:19:46;12.90;;;6.27;;
33993;SDS011;20673;48.980;8.138;2024-02-21T05:22:12;13.67;;;5.90;;
33993;SDS011;20673;48.980;8.138;2024-02-21T05:24:38;12.70;;;6.63;;
33993;SDS011;20673;48.980;8.138;2024-02-21T05:27:05;21.13;;;7.13;;
33993;SDS011;20673;48.980;8.138;2024-02-21T05:29:32;10.80;;;5.93;;
33993;SDS011;20673;48.980;8.138;2024-02-21T05:31:59;11.27;;;5.10;;
33993;SDS011;20673;48.980;8.138;2024-02-21T05:34:25;10.30;;;5.37;;
33993;SDS011;20673;48.980;8.138;2024-02-21T05:36:52;14.20;;;6.80;;
33993;SDS011;20673;48.980;8.138;2024-02-21T05:39:18;12.97;;;5.60;;
33993;SDS011;20673;48.980;8.138;2024-02-21T05:41:45;13.20;;;5.90;;
33993;SDS011;20673;48.980;8.138;2024-02-21T05:44:11;13.93;;;6.13;;
33993;SDS011;20673;48.980;8.138;2024-02-21T05:46:38;16.53;;;6.30;;
33993;SDS011;20673;48.980;8.138;2024-02-21T05:49:04;10.27;;;5.73;;
33993;SDS011;20673;48.980;8.138;2024-02-21T05:51:33;15.73;;;6.13;;
33993;SDS011;20673;48.980;8.138;2024-02-21T05:54:00;16.00;;;7.23;;
33993;SDS011;20673;48.980;8.138;2024-02-21T05:56:27;14.43;;;6.50;;
33993;SDS011;20673;48.980;8.138;2024-02-21T05:58:53;12.47;;;6.87;;
33993;SDS011;20673;48.980;8.138;2024-02-21T06:01:20;12.77;;;6.17;;
33993;SDS011;20673;48.980;8.138;2024-02-21T06:03:49;19.10;;;6.57;;
33993;SDS011;20673;48.980;8.138;2024-02-21T06:06:15;10.97;;;5.70;;
33993;SDS011;20673;48.980;8.138;2024-02-21T06:08:42;10.93;;;5.67;;
33993;SDS011;20673;48.980;8.138;2024-02-21T06:11:08;16.57;;;5.57;;
33993;SDS011;20673;48.980;8.138;2024-02-21T06:13:37;13.77;;;7.53;;
33993;SDS011;20673;48.980;8.138;2024-02-21T06:16:06;14.17;;;6.67;;
33993;SDS011;20673;48.980;8.138;2024-02-21T06:18:35;16.20;;;7.03;;
33993;SDS011;20673;48.980;8.138;2024-02-21T06:21:03;17.23;;;6.03;;
33993;SDS011;20673;48.980;8.138;2024-02-21T06:23:30;14.40;;;7.00;;
33993;SDS011;20673;48.980;8.138;2024-02-21T06:25:56;16.07;;;5.90;;
33993;SDS011;20673;48.980;8.138;2024-02-21T06:28:22;13.03;;;6.60;;
33993;SDS011;20673;48.980;8.138;2024-02-21T06:30:48;18.30;;;6.30;;
33993;SDS011;20673;48.980;8.138;2024-02-21T06:33:14;14.13;;;6.03;;
33993;SDS011;20673;48.980;8.138;2024-02-21T06:35:40;15.03;;;6.67;;
33993;SDS011;20673;48.980;8.138;2024-02-21T06:38:08;13.90;;;6.57;;
33993;SDS011;20673;48.980;8.138;2024-02-21T06:40:34;10.73;;;6.77;;
33993;SDS011;20673;48.980;8.138;2024-02-21T06:43:02;14.87;;;6.13;;
33993;SDS011;20673;48.980;8.138;2024-02-21T06:45:29;12.43;;;6.23;;
33993;SDS011;20673;48.980;8.138;2024-02-21T06:47:55;10.83;;;6.53;;
33993;SDS011;20673;48.980;8.138;2024-02-21T06:50:21;16.77;;;7.00;;
33993;SDS011;20673;48.980;8.138;2024-02-21T06:52:47;13.93;;;5.47;;
33993;SDS011;20673;48.980;8.138;2024-02-21T06:55:13;17.40;;;6.20;;
33993;SDS011;20673;48.980;8.138;2024-02-21T06:57:39;17.47;;;7.23;;
33993;SDS011;20673;48.980;8.138;2024-02-21T07:00:05;13.80;;;6.00;;
33993;SDS011;20673;48.980;8.138;2024-02-21T07:02:33;16.57;;;7.37;;
33993;SDS011;20673;48.980;8.138;2024-02-21T07:05:00;16.87;;;7.40;;
33993;SDS011;20673;48.980;8.138;2024-02-21T07:07:26;16.80;;;6.77;;
33993;SDS011;20673;48.980;8.138;2024-02-21T07:09:52;16.80;;;6.47;;
33993;SDS011;20673;48.980;8.138;2024-02-21T07:12:20;14.23;;;6.63;;
33993;SDS011;20673;48.980;8.138;2024-02-21T07:14:46;16.23;;;6.90;;
33993;SDS011;20673;48.980;8.138;2024-02-21T07:17:12;17.90;;;7.10;;
33993;SDS011;20673;48.980;8.138;2024-02-21T07:19:38;14.93;;;7.13;;
33993;SDS011;20673;48.980;8.138;2024-02-21T07:22:04;15.50;;;7.30;;
33993;SDS011;20673;48.980;8.138;2024-02-21T07:24:30;12.60;;;7.00;;
33993;SDS011;20673;48.980;8.138;2024-02-21T07:26:57;12.27;;;6.30;;
33993;SDS011;20673;48.980;8.138;2024-02-21T07:29:25;12.63;;;5.87;;
33993;SDS011;20673;48.980;8.138;2024-02-21T07:31:53;20.10;;;7.20;;
33993;SDS011;20673;48.980;8.138;2024-02-21T07:34:19;17.23;;;6.83;;
33993;SDS011;20673;48.980;8.138;2024-02-21T07:36:45;18.80;;;6.77;;
33993;SDS011;20673;48.980;8.138;2024-02-21T07:39:11;12.30;;;5.17;;
33993;SDS011;20673;48.980;8.138;2024-02-21T07:41:37;23.23;;;6.80;;
33993;SDS011;20673;48.980;8.138;2024-02-21T07:44:04;14.43;;;6.13;;
33993;SDS011;20673;48.980;8.138;2024-02-21T07:46:30;18.40;;;5.87;;
33993;SDS011;20673;48.980;8.138;2024-02-21T07:48:56;13.40;;;5.60;;
33993;SDS011;20673;48.980;8.138;2024-02-21T07:51:23;9.90;;;4.60;;
33993;SDS011;20673;48.980;8.138;2024-02-21T07:53:53;11.60;;;5.53;;
33993;SDS011;20673;48.980;8.138;2024-02-21T07:56:19;13.70;;;5.50;;
33993;SDS011;20673;48.980;8.138;2024-02-21T07:58:45;14.70;;;5.70;;
33993;SDS011;20673;48.980;8.138;2024-02-21T08:01:11;15.00;;;5.60;;
33993;SDS011;20673;48.980;8.138;2024-02-21T08:03:39;13.33;;;5.90;;
33993;SDS011;20673;48.980;8.138;2024-02-21T08:06:05;12.15;;;6.03;;
33993;SDS011;20673;48.980;8.138;2024-02-21T08:08:33;17.97;;;6.60;;
33993;SDS011;20673;48.980;8.138;2024-02-21T08:10:59;10.83;;;5.77;;
33993;SDS011;20673;48.980;8.138;2024-02-21T08:13:25;10.67;;;5.43;;
33993;SDS011;20673;48.980;8.138;2024-02-21T08:15:53;16.30;;;7.03;;
33993;SDS011;20673;48.980;8.138;2024-02-21T08:18:20;15.53;;;5.90;;
33993;SDS011;20673;48.980;8.138;2024-02-21T08:20:46;11.60;;;6.40;;
33993;SDS011;20673;48.980;8.138;2024-02-21T08:23:12;13.80;;;5.57;;
33993;SDS011;20673;48.980;8.138;2024-02-21T08:25:40;14.97;;;6.27;;
33993;SDS011;20673;48.980;8.138;2024-02-21T08:28:06;12.17;;;6.70;;
33993;SDS011;20673;48.980;8.138;2024-02-21T08:30:33;13.73;;;5.93;;
33993;SDS011;20673;48.980;8.138;2024-02-21T08:33:00;17.93;;;6.00;;
33993;SDS011;20673;48.980;8.138;2024-02-21T08:35:26;14.03;;;6.07;;
33993;SDS011;20673;48.980;8.138;2024-02-21T08:37:52;14.97;;;6.80;;
33993;SDS011;20673;48.980;8.138;2024-02-21T08:40:18;19.47;;;6.40;;
33993;SDS011;20673;48.980;8.138;2024-02-21T08:42:46;13.93;;;6.27;;
33993;SDS011;20673;48.980;8.138;2024-02-21T08:45:13;13.07;;;6.70;;
33993;SDS011;20673;48.980;8.138;2024-02-21T08:47:39;15.17;;;6.33;;
33993;SDS011;20673;48.980;8.138;2024-02-21T08:50:06;15.17;;;5.97;;
33993;SDS011;20673;48.980;8.138;2024-02-21T08:52:35;15.37;;;6.23;;
33993;SDS011;20673;48.980;8.138;2024-02-21T08:55:01;15.47;;;6.97;;
33993;SDS011;20673;48.980;8.138;2024-02-21T08:57:27;13.50;;;6.33;;
33993;SDS011;20673;48.980;8.138;2024-02-21T08:59:54;15.53;;;6.80;;
33993;SDS011;20673;48.980;8.138;2024-02-21T09:02:20;15.07;;;5.97;;
33993;SDS011;20673;48.980;8.138;2024-02-21T09:04:46;12.17;;;6.30;;
33993;SDS011;20673;48.980;8.138;2024-02-21T09:07:12;12.70;;;5.35;;
33993;SDS011;20673;48.980;8.138;2024-02-21T09:09:38;14.73;;;6.45;;
33993;SDS011;20673;48.980;8.138;2024-02-21T09:12:08;12.88;;;5.70;;
33993;SDS011;20673;48.980;8.138;2024-02-21T09:14:37;9.90;;;5.10;;
33993;SDS011;20673;48.980;8.138;2024-02-21T09:19:32;11.43;;;5.53;;
33993;SDS011;20673;48.980;8.138;2024-02-21T09:22:00;12.10;;;5.80;;
33993;SDS011;20673;48.980;8.138;2024-02-21T09:24:26;11.68;;;5.65;;
33993;SDS011;20673;48.980;8.138;2024-02-21T09:26:52;18.47;;;6.77;;
33993;SDS011;20673;48.980;8.138;2024-02-21T09:29:18;12.23;;;5.78;;
33993;SDS011;20673;48.980;8.138;2024-02-21T09:31:45;12.18;;;5.65;;
33993;SDS011;20673;48.980;8.138;2024-02-21T09:34:11;11.93;;;6.00;;
33993;SDS011;20673;48.980;8.138;2024-02-21T09:36:37;12.98;;;5.65;;
33993;SDS011;20673;48.980;8.138;2024-02-21T09:39:05;10.63;;;5.50;;
33993;SDS011;20673;48.980;8.138;2024-02-21T09:41:31;11.35;;;5.28;;
33993;SDS011;20673;48.980;8.138;2024-02-21T09:44:02;12.00;;;5.83;;
33993;SDS011;20673;48.980;8.138;2024-02-21T09:46:40;13.25;;;5.87;;
33993;SDS011;20673;48.980;8.138;2024-02-21T09:49:40;15.90;;;6.00;;
33993;SDS011;20673;48.980;8.138;2024-02-21T09:51:58;10.60;;;5.37;;
33993;SDS011;20673;48.980;8.138;2024-02-21T09:54:30;11.08;;;5.10;;
33993;SDS011;20673;48.980;8.138;2024-02-21T09:56:58;10.40;;;5.83;;
33993;SDS011;20673;48.980;8.138;2024-02-21T09:59:30;13.13;;;5.70;;
33993;SDS011;20673;48.980;8.138;2024-02-21T10:01:58;16.45;;;5.53;;
33993;SDS011;20673;48.980;8.138;2024-02-21T10:04:26;10.93;;;5.37;;
33993;SDS011;20673;48.980;8.138;2024-02-21T10:06:53;12.73;;;4.92;;
33993;SDS011;20673;48.980;8.138;2024-02-21T10:09:20;10.50;;;5.03;;
33993;SDS011;20673;48.980;8.138;2024-02-21T10:11:55;9.33;;;5.15;;
33993;SDS011;20673;48.980;8.138;2024-02-21T10:14:23;11.50;;;5.03;;
33993;SDS011;20673;48.980;8.138;2024-02-21T10:16:56;9.35;;;4.92;;
33993;SDS011;20673;48.980;8.138;2024-02-21T10:19:24;15.90;;;4.95;;
33993;SDS011;20673;48.980;8.138;2024-02-21T10:24:33;8.10;;;4.17;;
33993;SDS011;20673;48.980;8.138;2024-02-21T10:27:04;11.73;;;3.58;;
33993;SDS011;20673;48.980;8.138;2024-02-21T10:29:37;11.22;;;3.60;;
33993;SDS011;20673;48.980;8.138;2024-02-21T10:32:09;10.10;;;4.00;;
33993;SDS011;20673;48.980;8.138;2024-02-21T10:34:39;12.25;;;4.05;;
33993;SDS011;20673;48.980;8.138;2024-02-21T10:37:08;7.85;;;3.40;;
33993;SDS011;20673;48.980;8.138;2024-02-21T10:39:37;9.28;;;3.40;;
33993;SDS011;20673;48.980;8.138;2024-02-21T10:42:05;9.50;;;3.72;;
33993;SDS011;20673;48.980;8.138;2024-02-21T10:44:34;12.05;;;3.65;;
33993;SDS011;20673;48.980;8.138;2024-02-21T10:49:40;8.98;;;3.30;;
33993;SDS011;20673;48.980;8.138;2024-02-21T10:57:26;10.18;;;3.85;;
33993;SDS011;20673;48.980;8.138;2024-02-21T10:59:53;10.78;;;3.90;;
33993;SDS011;20673;48.980;8.138;2024-02-21T11:02:23;10.47;;;3.17;;
33993;SDS011;20673;48.980;8.138;2024-02-21T11:04:50;9.47;;;3.30;;
33993;SDS011;20673;48.980;8.138;2024-02-21T11:07:20;7.30;;;3.13;;
33993;SDS011;20673;48.980;8.138;2024-02-21T11:09:53;9.33;;;3.13;;
33993;SDS011;20673;48.980;8.138;2024-02-21T11:12:23;8.87;;;3.07;;
33993;SDS011;20673;48.980;8.138;2024-02-21T11:14:49;15.90;;;3.50;;
33993;SDS011;20673;48.980;8.138;2024-02-21T11:17:19;10.13;;;3.15;;
33993;SDS011;20673;48.980;8.138;2024-02-21T11:19:50;5.50;;;2.63;;
33993;SDS011;20673;48.980;8.138;2024-02-21T11:22:17;11.85;;;3.22;;
33993;SDS011;20673;48.980;8.138;2024-02-21T11:24:45;13.62;;;4.20;;
33993;SDS011;20673;48.980;8.138;2024-02-21T11:27:12;14.58;;;3.83;;
33993;SDS011;20673;48.980;8.138;2024-02-21T11:29:54;11.50;;;3.60;;
33993;SDS011;20673;48.980;8.138;2024-02-21T11:32:21;8.78;;;2.50;;
33993;SDS011;20673;48.980;8.138;2024-02-21T11:34:54;10.58;;;4.20;;
33993;SDS011;20673;48.980;8.138;2024-02-21T11:37:29;9.90;;;4.50;;
33993;SDS011;20673;48.980;8.138;2024-02-21T11:40:00;9.83;;;3.25;;
33993;SDS011;20673;48.980;8.138;2024-02-21T11:42:26;7.90;;;2.93;;
33993;SDS011;20673;48.980;8.138;2024-02-21T11:44:54;7.90;;;2.85;;
33993;SDS011;20673;48.980;8.138;2024-02-21T11:47:24;9.68;;;3.22;;
33993;SDS011;20673;48.980;8.138;2024-02-21T11:49:51;12.50;;;3.83;;
33993;SDS011;20673;48.980;8.138;2024-02-21T11:52:23;6.17;;;3.90;;
33993;SDS011;20673;48.980;8.138;2024-02-21T11:54:53;14.03;;;3.80;;
33993;SDS011;20673;48.980;8.138;2024-02-21T11:57:22;6.30;;;2.70;;
33993;SDS011;20673;48.980;8.138;2024-02-21T11:59:48;12.15;;;2.80;;
33993;SDS011;20673;48.980;8.138;2024-02-21T12:02:15;9.48;;;2.70;;
33993;SDS011;20673;48.980;8.138;2024-02-21T12:04:43;8.17;;;2.60;;
33993;SDS011;20673;48.980;8.138;2024-02-21T12:07:10;11.25;;;3.22;;
33993;SDS011;20673;48.980;8.138;2024-02-21T12:09:36;12.65;;;3.75;;
33993;SDS011;20673;48.980;8.138;2024-02-21T12:12:03;8.00;;;2.83;;
33993;SDS011;20673;48.980;8.138;2024-02-21T12:14:31;6.10;;;2.70;;
33993;SDS011;20673;48.980;8.138;2024-02-21T12:17:00;9.33;;;2.55;;
33993;SDS011;20673;48.980;8.138;2024-02-21T12:19:31;8.25;;;2.75;;
33993;SDS011;20673;48.980;8.138;2024-02-21T12:21:59;6.25;;;2.80;;
33993;SDS011;20673;48.980;8.138;2024-02-21T12:24:27;9.65;;;2.60;;
33993;SDS011;20673;48.980;8.138;2024-02-21T12:26:54;8.83;;;2.50;;
33993;SDS011;20673;48.980;8.138;2024-02-21T12:29:24;6.87;;;2.50;;
33993;SDS011;20673;48.980;8.138;2024-02-21T12:31:51;6.45;;;2.67;;
33993;SDS011;20673;48.980;8.138;2024-02-21T12:34:19;7.97;;;2.73;;
33993;SDS011;20673;48.980;8.138;2024-02-21T12:36:46;9.38;;;2.67;;
33993;SDS011;20673;48.980;8.138;2024-02-21T12:39:12;10.30;;;2.98;;
33993;SDS011;20673;48.980;8.138;2024-02-21T12:41:40;5.73;;;2.80;;
33993;SDS011;20673;48.980;8.138;2024-02-21T12:44:09;16.97;;;3.70;;
33993;SDS011;20673;48.980;8.138;2024-02-21T12:46:38;6.53;;;2.53;;
33993;SDS011;20673;48.980;8.138;2024-02-21T12:49:05;7.83;;;2.73;;
33993;SDS011;20673;48.980;8.138;2024-02-21T12:51:33;9.67;;;2.83;;
33993;SDS011;20673;48.980;8.138;2024-02-21T12:54:00;11.23;;;3.20;;
33993;SDS011;20673;48.980;8.138;2024-02-21T12:56:28;7.72;;;2.30;;
33993;SDS011;20673;48.980;8.138;2024-02-21T12:58:57;7.05;;;2.85;;
33993;SDS011;20673;48.980;8.138;2024-02-21T13:01:23;12.95;;;3.70;;
33993;SDS011;20673;48.980;8.138;2024-02-21T13:03:50;7.57;;;2.63;;
33993;SDS011;20673;48.980;8.138;2024-02-21T13:06:16;8.50;;;2.85;;
33993;SDS011;20673;48.980;8.138;2024-02-21T13:08:44;7.17;;;2.45;;
33993;SDS011;20673;48.980;8.138;2024-02-21T13:11:11;7.37;;;2.47;;
33993;SDS011;20673;48.980;8.138;2024-02-21T13:13:38;5.92;;;2.08;;
33993;SDS011;20673;48.980;8.138;2024-02-21T13:16:05;7.33;;;2.42;;
33993;SDS011;20673;48.980;8.138;2024-02-21T13:18:32;8.43;;;2.80;;
33993;SDS011;20673;48.980;8.138;2024-02-21T13:21:00;9.55;;;3.00;;
33993;SDS011;20673;48.980;8.138;2024-02-21T13:23:27;7.80;;;2.75;;
33993;SDS011;20673;48.980;8.138;2024-02-21T13:25:53;7.77;;;3.40;;
33993;SDS011;20673;48.980;8.138;2024-02-21T13:28:19;6.85;;;3.12;;
33993;SDS011;20673;48.980;8.138;2024-02-21T13:30:45;8.78;;;3.22;;
33993;SDS011;20673;48.980;8.138;2024-02-21T13:33:11;10.65;;;3.35;;
33993;SDS011;20673;48.980;8.138;2024-02-21T13:35:37;9.60;;;2.97;;
33993;SDS011;20673;48.980;8.138;2024-02-21T13:38:04;7.12;;;2.75;;
33993;SDS011;20673;48.980;8.138;2024-02-21T13:40:30;7.20;;;2.70;;
33993;SDS011;20673;48.980;8.138;2024-02-21T13:42:56;7.15;;;2.22;;
33993;SDS011;20673;48.980;8.138;2024-02-21T13:45:23;6.45;;;2.33;;
33993;SDS011;20673;48.980;8.138;2024-02-21T13:47:49;6.83;;;2.70;;
33993;SDS011;20673;48.980;8.138;2024-02-21T13:50:15;7.42;;;2.80;;
33993;SDS011;20673;48.980;8.138;2024-02-21T13:52:43;6.70;;;2.07;;
33993;SDS011;20673;48.980;8.138;2024-02-21T13:55:09;8.85;;;2.60;;
33993;SDS011;20673;48.980;8.138;2024-02-21T13:57:36;3.92;;;2.20;;
33993;SDS011;20673;48.980;8.138;2024-02-21T14:00:05;7.72;;;2.12;;
33993;SDS011;20673;48.980;8.138;2024-02-21T14:02:34;9.28;;;2.52;;
33993;SDS011;20673;48.980;8.138;2024-02-21T14:05:00;9.50;;;2.40;;
33993;SDS011;20673;48.980;8.138;2024-02-21T14:07:28;6.93;;;2.53;;
33993;SDS011;20673;48.980;8.138;2024-02-21T14:09:54;6.30;;;2.83;;
33993;SDS011;20673;48.980;8.138;2024-02-21T14:12:20;7.75;;;2.70;;
33993;SDS011;20673;48.980;8.138;2024-02-21T14:14:47;8.27;;;2.67;;
33993;SDS011;20673;48.980;8.138;2024-02-21T14:17:13;6.60;;;2.67;;
33993;SDS011;20673;48.980;8.138;2024-02-21T14:19:39;9.07;;;3.33;;
33993;SDS011;20673;48.980;8.138;2024-02-21T14:22:05;8.57;;;2.53;;
33993;SDS011;20673;48.980;8.138;2024-02-21T14:24:31;9.63;;;3.72;;
33993;SDS011;20673;48.980;8.138;2024-02-21T14:26:57;9.30;;;3.47;;
33993;SDS011;20673;48.980;8.138;2024-02-21T14:29:25;7.47;;;3.87;;
33993;SDS011;20673;48.980;8.138;2024-02-21T14:31:51;9.70;;;3.83;;
33993;SDS011;20673;48.980;8.138;2024-02-21T14:34:17;23.93;;;5.13;;
33993;SDS011;20673;48.980;8.138;2024-02-21T14:36:43;6.27;;;3.37;;
33993;SDS011;20673;48.980;8.138;2024-02-21T14:39:09;7.65;;;3.42;;
33993;SDS011;20673;48.980;8.138;2024-02-21T14:41:35;8.43;;;3.95;;
33993;SDS011;20673;48.980;8.138;2024-02-21T14:44:02;10.20;;;3.08;;
33993;SDS011;20673;48.980;8.138;2024-02-21T14:46:28;8.60;;;3.27;;
33993;SDS011;20673;48.980;8.138;2024-02-21T14:48:55;9.23;;;2.70;;
33993;SDS011;20673;48.980;8.138;2024-02-21T14:51:21;7.22;;;2.22;;